sensor_id;sensor_type;location;lat;lon;timestamp;temperature;humidity
19252;DHT22;9760;50.944;5.304;2023-03-11T00:00:34;0.90;99.90
19252;DHT22;9760;50.944;5.304;2023-03-11T00:03:01;0.80;99.90
19252;DHT22;9760;50.944;5.304;2023-03-11T00:05:29;0.80;99.90
19252;DHT22;9760;50.944;5.304;2023-03-11T00:07:56;0.80;99.90
19252;DHT22;9760;50.944;5.304;2023-03-11T00:10:25;0.90;99.90
19252;DHT22;9760;50.944;5.304;2023-03-11T00:12:51;0.90;99.90
19252;DHT22;9760;50.944;5.304;2023-03-11T00:15:17;0.80;99.90
19252;DHT22;9760;50.944;5.304;2023-03-11T00:17:43;0.80;99.90
19252;DHT22;9760;50.944;5.304;2023-03-11T00:20:25;0.80;99.90
19252;DHT22;9760;50.944;5.304;2023-03-11T00:22:52;0.80;99.90
19252;DHT22;9760;50.944;5.304;2023-03-11T00:25:18;0.80;99.90
19252;DHT22;9760;50.944;5.304;2023-03-11T00:27:44;0.70;99.90
19252;DHT22;9760;50.944;5.304;2023-03-11T00:30:11;0.70;99.90
19252;DHT22;9760;50.944;5.304;2023-03-11T00:32:37;0.70;99.90
19252;DHT22;9760;50.944;5.304;2023-03-11T00:35:03;0.60;99.90
19252;DHT22;9760;50.944;5.304;2023-03-11T00:37:29;0.70;99.90
19252;DHT22;9760;50.944;5.304;2023-03-11T00:39:55;0.70;99.90
19252;DHT22;9760;50.944;5.304;2023-03-11T00:42:20;0.70;99.90
19252;DHT22;9760;50.944;5.304;2023-03-11T00:44:46;0.70;99.90
19252;DHT22;9760;50.944;5.304;2023-03-11T00:47:12;0.80;99.90
19252;DHT22;9760;50.944;5.304;2023-03-11T00:49:38;0.80;99.90
19252;DHT22;9760;50.944;5.304;2023-03-11T00:52:04;0.80;99.90
19252;DHT22;9760;50.944;5.304;2023-03-11T00:54:30;0.90;99.90
19252;DHT22;9760;50.944;5.304;2023-03-11T00:56:56;0.90;99.90
19252;DHT22;9760;50.944;5.304;2023-03-11T00:59:21;0.90;99.90
19252;DHT22;9760;50.944;5.304;2023-03-11T01:01:47;0.90;99.90
19252;DHT22;9760;50.944;5.304;2023-03-11T01:04:13;1.00;99.90
19252;DHT22;9760;50.944;5.304;2023-03-11T01:06:38;1.00;99.90
19252;DHT22;9760;50.944;5.304;2023-03-11T01:09:04;1.00;99.90
19252;DHT22;9760;50.944;5.304;2023-03-11T01:11:30;1.00;99.90
19252;DHT22;9760;50.944;5.304;2023-03-11T01:13:56;1.10;99.90
19252;DHT22;9760;50.944;5.304;2023-03-11T01:16:22;1.10;99.90
19252;DHT22;9760;50.944;5.304;2023-03-11T01:18:47;1.10;99.90
19252;DHT22;9760;50.944;5.304;2023-03-11T01:21:13;1.10;99.90
19252;DHT22;9760;50.944;5.304;2023-03-11T01:23:40;1.20;99.90
19252;DHT22;9760;50.944;5.304;2023-03-11T01:26:05;1.20;99.90
19252;DHT22;9760;50.944;5.304;2023-03-11T01:28:31;1.20;99.90
19252;DHT22;9760;50.944;5.304;2023-03-11T01:30:57;1.20;99.90
19252;DHT22;9760;50.944;5.304;2023-03-11T01:33:23;1.30;99.90
19252;DHT22;9760;50.944;5.304;2023-03-11T01:35:48;1.30;99.90
19252;DHT22;9760;50.944;5.304;2023-03-11T01:38:15;1.30;99.90
19252;DHT22;9760;50.944;5.304;2023-03-11T01:40:46;1.20;99.90
19252;DHT22;9760;50.944;5.304;2023-03-11T01:43:50;1.20;99.90
19252;DHT22;9760;50.944;5.304;2023-03-11T01:46:27;1.20;99.90
19252;DHT22;9760;50.944;5.304;2023-03-11T01:49:00;1.10;99.90
19252;DHT22;9760;50.944;5.304;2023-03-11T01:51:39;1.10;99.90
19252;DHT22;9760;50.944;5.304;2023-03-11T01:54:27;1.20;99.90
19252;DHT22;9760;50.944;5.304;2023-03-11T01:56:53;1.20;99.90
19252;DHT22;9760;50.944;5.304;2023-03-11T01:59:45;1.20;99.90
19252;DHT22;9760;50.944;5.304;2023-03-11T02:02:23;1.20;99.90
19252;DHT22;9760;50.944;5.304;2023-03-11T02:04:50;1.20;99.90
19252;DHT22;9760;50.944;5.304;2023-03-11T02:07:16;1.20;99.90
19252;DHT22;9760;50.944;5.304;2023-03-11T02:09:41;1.10;99.90
19252;DHT22;9760;50.944;5.304;2023-03-11T02:12:09;1.10;99.90
19252;DHT22;9760;50.944;5.304;2023-03-11T02:14:35;1.00;99.90
19252;DHT22;9760;50.944;5.304;2023-03-11T02:17:03;1.00;99.90
19252;DHT22;9760;50.944;5.304;2023-03-11T02:22:20;1.00;99.90
19252;DHT22;9760;50.944;5.304;2023-03-11T02:27:17;1.00;99.90
19252;DHT22;9760;50.944;5.304;2023-03-11T02:29:45;1.00;99.90
19252;DHT22;9760;50.944;5.304;2023-03-11T02:32:14;1.00;99.90
19252;DHT22;9760;50.944;5.304;2023-03-11T02:34:40;1.00;99.90
19252;DHT22;9760;50.944;5.304;2023-03-11T02:37:08;0.90;99.90
19252;DHT22;9760;50.944;5.304;2023-03-11T02:39:40;0.90;99.90
19252;DHT22;9760;50.944;5.304;2023-03-11T02:45:05;0.90;99.90
19252;DHT22;9760;50.944;5.304;2023-03-11T02:47:33;0.90;99.90
19252;DHT22;9760;50.944;5.304;2023-03-11T02:50:01;0.90;99.90
19252;DHT22;9760;50.944;5.304;2023-03-11T02:52:31;0.90;99.90
19252;DHT22;9760;50.944;5.304;2023-03-11T02:54:58;0.90;99.90
19252;DHT22;9760;50.944;5.304;2023-03-11T02:57:23;0.90;99.90
19252;DHT22;9760;50.944;5.304;2023-03-11T02:59:49;0.90;99.90
19252;DHT22;9760;50.944;5.304;2023-03-11T03:02:15;0.90;99.90
19252;DHT22;9760;50.944;5.304;2023-03-11T03:04:41;0.90;99.90
19252;DHT22;9760;50.944;5.304;2023-03-11T03:07:07;1.00;99.90
19252;DHT22;9760;50.944;5.304;2023-03-11T03:09:34;1.00;99.90
19252;DHT22;9760;50.944;5.304;2023-03-11T03:12:00;1.00;99.90
19252;DHT22;9760;50.944;5.304;2023-03-11T03:14:25;1.00;99.90
19252;DHT22;9760;50.944;5.304;2023-03-11T03:16:51;1.00;99.90
19252;DHT22;9760;50.944;5.304;2023-03-11T03:19:16;0.90;99.90
19252;DHT22;9760;50.944;5.304;2023-03-11T03:21:42;0.90;99.90
19252;DHT22;9760;50.944;5.304;2023-03-11T03:24:08;0.90;99.90
19252;DHT22;9760;50.944;5.304;2023-03-11T03:26:34;1.00;99.90
19252;DHT22;9760;50.944;5.304;2023-03-11T03:28:59;1.00;99.90
19252;DHT22;9760;50.944;5.304;2023-03-11T03:31:25;1.00;99.90
19252;DHT22;9760;50.944;5.304;2023-03-11T03:33:51;1.00;99.90
19252;DHT22;9760;50.944;5.304;2023-03-11T03:36:16;1.00;99.90
19252;DHT22;9760;50.944;5.304;2023-03-11T03:38:42;1.00;99.90
19252;DHT22;9760;50.944;5.304;2023-03-11T03:41:08;1.00;99.90
19252;DHT22;9760;50.944;5.304;2023-03-11T03:43:34;1.10;99.90
19252;DHT22;9760;50.944;5.304;2023-03-11T03:46:04;1.10;99.90
19252;DHT22;9760;50.944;5.304;2023-03-11T03:48:29;1.10;99.90
19252;DHT22;9760;50.944;5.304;2023-03-11T03:50:55;1.10;99.90
19252;DHT22;9760;50.944;5.304;2023-03-11T03:53:21;1.00;99.90
19252;DHT22;9760;50.944;5.304;2023-03-11T03:55:47;1.00;99.90
19252;DHT22;9760;50.944;5.304;2023-03-11T03:58:15;1.00;99.90
19252;DHT22;9760;50.944;5.304;2023-03-11T04:00:40;0.90;99.90
19252;DHT22;9760;50.944;5.304;2023-03-11T04:03:06;0.90;99.90
19252;DHT22;9760;50.944;5.304;2023-03-11T04:05:32;0.80;99.90
19252;DHT22;9760;50.944;5.304;2023-03-11T04:07:57;0.80;99.90
19252;DHT22;9760;50.944;5.304;2023-03-11T04:10:23;0.70;99.90
19252;DHT22;9760;50.944;5.304;2023-03-11T04:12:48;0.70;99.90
19252;DHT22;9760;50.944;5.304;2023-03-11T04:15:14;0.70;99.90
19252;DHT22;9760;50.944;5.304;2023-03-11T04:17:39;0.60;99.90
19252;DHT22;9760;50.944;5.304;2023-03-11T04:20:05;0.70;99.90
19252;DHT22;9760;50.944;5.304;2023-03-11T04:22:33;0.60;99.90
19252;DHT22;9760;50.944;5.304;2023-03-11T04:24:58;0.60;99.90
19252;DHT22;9760;50.944;5.304;2023-03-11T04:27:24;0.60;99.90
19252;DHT22;9760;50.944;5.304;2023-03-11T04:29:50;0.70;99.90
19252;DHT22;9760;50.944;5.304;2023-03-11T04:32:15;0.70;99.90
19252;DHT22;9760;50.944;5.304;2023-03-11T04:34:41;0.70;99.90
19252;DHT22;9760;50.944;5.304;2023-03-11T04:37:06;0.70;99.90
19252;DHT22;9760;50.944;5.304;2023-03-11T04:39:32;0.70;99.90
19252;DHT22;9760;50.944;5.304;2023-03-11T04:41:58;0.70;99.90
19252;DHT22;9760;50.944;5.304;2023-03-11T04:44:23;0.70;99.90
19252;DHT22;9760;50.944;5.304;2023-03-11T04:46:49;0.60;99.90
19252;DHT22;9760;50.944;5.304;2023-03-11T04:49:15;0.50;99.90
19252;DHT22;9760;50.944;5.304;2023-03-11T04:51:41;0.40;99.90
19252;DHT22;9760;50.944;5.304;2023-03-11T04:54:06;0.40;99.90
19252;DHT22;9760;50.944;5.304;2023-03-11T04:56:32;0.40;99.90
19252;DHT22;9760;50.944;5.304;2023-03-11T04:58:58;0.30;99.90
19252;DHT22;9760;50.944;5.304;2023-03-11T05:01:24;0.30;99.90
19252;DHT22;9760;50.944;5.304;2023-03-11T05:03:49;0.20;99.90
19252;DHT22;9760;50.944;5.304;2023-03-11T05:06:15;0.10;99.90
19252;DHT22;9760;50.944;5.304;2023-03-11T05:08:41;0.10;99.90
19252;DHT22;9760;50.944;5.304;2023-03-11T05:11:06;0.10;99.90
19252;DHT22;9760;50.944;5.304;2023-03-11T05:13:33;0.00;99.90
19252;DHT22;9760;50.944;5.304;2023-03-11T05:15:58;-0.10;99.90
19252;DHT22;9760;50.944;5.304;2023-03-11T05:18:24;-0.20;99.90
19252;DHT22;9760;50.944;5.304;2023-03-11T05:20:50;-0.20;99.90
19252;DHT22;9760;50.944;5.304;2023-03-11T05:23:15;-0.20;99.90
19252;DHT22;9760;50.944;5.304;2023-03-11T05:25:41;-0.10;99.90
19252;DHT22;9760;50.944;5.304;2023-03-11T05:28:07;-0.10;99.90
19252;DHT22;9760;50.944;5.304;2023-03-11T05:30:32;0.00;99.90
19252;DHT22;9760;50.944;5.304;2023-03-11T05:32:58;0.00;99.90
19252;DHT22;9760;50.944;5.304;2023-03-11T05:35:24;0.00;99.90
19252;DHT22;9760;50.944;5.304;2023-03-11T05:37:49;0.00;99.90
19252;DHT22;9760;50.944;5.304;2023-03-11T05:40:15;-0.10;99.90
19252;DHT22;9760;50.944;5.304;2023-03-11T05:42:41;-0.10;99.90
19252;DHT22;9760;50.944;5.304;2023-03-11T05:45:08;-0.20;99.90
19252;DHT22;9760;50.944;5.304;2023-03-11T05:47:34;-0.30;99.90
19252;DHT22;9760;50.944;5.304;2023-03-11T05:49:59;-0.40;99.90
19252;DHT22;9760;50.944;5.304;2023-03-11T05:52:25;-0.40;99.90
19252;DHT22;9760;50.944;5.304;2023-03-11T05:54:51;-0.30;99.90
19252;DHT22;9760;50.944;5.304;2023-03-11T05:57:17;-0.30;99.90
19252;DHT22;9760;50.944;5.304;2023-03-11T05:59:43;-0.30;99.90
19252;DHT22;9760;50.944;5.304;2023-03-11T06:02:09;-0.20;99.90
19252;DHT22;9760;50.944;5.304;2023-03-11T06:04:34;-0.30;99.90
19252;DHT22;9760;50.944;5.304;2023-03-11T06:07:00;-0.20;99.90
19252;DHT22;9760;50.944;5.304;2023-03-11T06:09:26;-0.20;99.90
19252;DHT22;9760;50.944;5.304;2023-03-11T06:11:51;-0.30;99.90
19252;DHT22;9760;50.944;5.304;2023-03-11T06:14:17;-0.40;99.90
19252;DHT22;9760;50.944;5.304;2023-03-11T06:16:43;-0.40;99.90
19252;DHT22;9760;50.944;5.304;2023-03-11T06:19:08;-0.40;99.90
19252;DHT22;9760;50.944;5.304;2023-03-11T06:21:47;-0.40;99.90
19252;DHT22;9760;50.944;5.304;2023-03-11T06:24:12;-0.30;99.90
19252;DHT22;9760;50.944;5.304;2023-03-11T06:26:38;-0.20;99.90
19252;DHT22;9760;50.944;5.304;2023-03-11T06:29:03;-0.20;99.90
19252;DHT22;9760;50.944;5.304;2023-03-11T06:31:29;-0.10;99.90
19252;DHT22;9760;50.944;5.304;2023-03-11T06:33:55;0.00;99.90
19252;DHT22;9760;50.944;5.304;2023-03-11T06:36:21;-0.10;99.90
19252;DHT22;9760;50.944;5.304;2023-03-11T06:38:47;0.00;99.90
19252;DHT22;9760;50.944;5.304;2023-03-11T06:41:14;0.00;99.90
19252;DHT22;9760;50.944;5.304;2023-03-11T06:43:40;0.10;99.90
19252;DHT22;9760;50.944;5.304;2023-03-11T06:46:14;0.10;99.90
19252;DHT22;9760;50.944;5.304;2023-03-11T06:48:41;0.20;99.90
19252;DHT22;9760;50.944;5.304;2023-03-11T06:51:08;0.20;99.90
19252;DHT22;9760;50.944;5.304;2023-03-11T06:53:34;0.20;99.90
19252;DHT22;9760;50.944;5.304;2023-03-11T06:58:34;0.20;99.90
19252;DHT22;9760;50.944;5.304;2023-03-11T07:01:01;0.20;99.90
19252;DHT22;9760;50.944;5.304;2023-03-11T07:03:28;0.10;99.90
19252;DHT22;9760;50.944;5.304;2023-03-11T07:05:53;0.10;99.90
19252;DHT22;9760;50.944;5.304;2023-03-11T07:08:19;0.10;99.90
19252;DHT22;9760;50.944;5.304;2023-03-11T07:10:45;0.00;99.90
19252;DHT22;9760;50.944;5.304;2023-03-11T07:13:11;0.00;99.90
19252;DHT22;9760;50.944;5.304;2023-03-11T07:15:37;0.10;99.90
19252;DHT22;9760;50.944;5.304;2023-03-11T07:18:02;0.20;99.90
19252;DHT22;9760;50.944;5.304;2023-03-11T07:20:28;0.30;99.90
19252;DHT22;9760;50.944;5.304;2023-03-11T07:22:54;0.50;99.90
19252;DHT22;9760;50.944;5.304;2023-03-11T07:25:19;0.60;99.90
19252;DHT22;9760;50.944;5.304;2023-03-11T07:27:45;0.70;99.90
19252;DHT22;9760;50.944;5.304;2023-03-11T07:30:11;0.80;99.90
19252;DHT22;9760;50.944;5.304;2023-03-11T07:32:39;0.90;99.90
19252;DHT22;9760;50.944;5.304;2023-03-11T07:35:06;0.90;99.90
19252;DHT22;9760;50.944;5.304;2023-03-11T07:37:31;1.00;99.90
19252;DHT22;9760;50.944;5.304;2023-03-11T07:39:57;1.10;99.90
19252;DHT22;9760;50.944;5.304;2023-03-11T07:42:22;1.20;99.90
19252;DHT22;9760;50.944;5.304;2023-03-11T07:44:51;1.20;99.90
19252;DHT22;9760;50.944;5.304;2023-03-11T07:47:17;1.30;99.90
19252;DHT22;9760;50.944;5.304;2023-03-11T07:49:42;1.30;99.90
19252;DHT22;9760;50.944;5.304;2023-03-11T07:52:08;1.30;99.90
19252;DHT22;9760;50.944;5.304;2023-03-11T07:54:34;1.50;99.90
19252;DHT22;9760;50.944;5.304;2023-03-11T07:56:59;1.50;99.90
19252;DHT22;9760;50.944;5.304;2023-03-11T07:59:25;1.50;99.90
19252;DHT22;9760;50.944;5.304;2023-03-11T08:01:51;1.50;99.90
19252;DHT22;9760;50.944;5.304;2023-03-11T08:04:16;1.60;99.90
19252;DHT22;9760;50.944;5.304;2023-03-11T08:06:45;1.60;99.90
19252;DHT22;9760;50.944;5.304;2023-03-11T08:09:11;1.60;99.90
19252;DHT22;9760;50.944;5.304;2023-03-11T08:11:37;1.70;99.90
19252;DHT22;9760;50.944;5.304;2023-03-11T08:14:03;1.60;99.90
19252;DHT22;9760;50.944;5.304;2023-03-11T08:16:29;1.60;99.90
19252;DHT22;9760;50.944;5.304;2023-03-11T08:18:56;1.70;99.90
19252;DHT22;9760;50.944;5.304;2023-03-11T08:21:24;1.80;99.90
19252;DHT22;9760;50.944;5.304;2023-03-11T08:23:51;1.80;99.90
19252;DHT22;9760;50.944;5.304;2023-03-11T08:26:19;1.90;99.90
19252;DHT22;9760;50.944;5.304;2023-03-11T08:28:48;2.00;99.90
19252;DHT22;9760;50.944;5.304;2023-03-11T08:31:18;2.00;99.90
19252;DHT22;9760;50.944;5.304;2023-03-11T08:33:47;2.20;99.90
19252;DHT22;9760;50.944;5.304;2023-03-11T08:36:14;2.30;99.90
19252;DHT22;9760;50.944;5.304;2023-03-11T08:38:40;2.50;99.90
19252;DHT22;9760;50.944;5.304;2023-03-11T08:41:06;2.70;99.90
19252;DHT22;9760;50.944;5.304;2023-03-11T08:43:32;2.90;99.90
19252;DHT22;9760;50.944;5.304;2023-03-11T08:46:02;3.00;99.90
19252;DHT22;9760;50.944;5.304;2023-03-11T08:48:28;3.20;99.90
19252;DHT22;9760;50.944;5.304;2023-03-11T08:50:54;3.10;99.90
19252;DHT22;9760;50.944;5.304;2023-03-11T08:53:23;3.30;99.90
19252;DHT22;9760;50.944;5.304;2023-03-11T08:55:50;3.40;99.90
19252;DHT22;9760;50.944;5.304;2023-03-11T08:58:17;3.40;99.90
19252;DHT22;9760;50.944;5.304;2023-03-11T09:00:43;3.30;99.90
19252;DHT22;9760;50.944;5.304;2023-03-11T09:03:08;3.40;99.90
19252;DHT22;9760;50.944;5.304;2023-03-11T09:05:34;3.50;99.90
19252;DHT22;9760;50.944;5.304;2023-03-11T09:08:01;3.60;99.90
19252;DHT22;9760;50.944;5.304;2023-03-11T09:10:28;3.60;99.90
19252;DHT22;9760;50.944;5.304;2023-03-11T09:12:53;3.70;99.90
19252;DHT22;9760;50.944;5.304;2023-03-11T09:15:19;3.80;99.90
19252;DHT22;9760;50.944;5.304;2023-03-11T09:17:45;4.00;99.90
19252;DHT22;9760;50.944;5.304;2023-03-11T09:20:14;4.20;99.90
19252;DHT22;9760;50.944;5.304;2023-03-11T09:22:39;4.30;99.90
19252;DHT22;9760;50.944;5.304;2023-03-11T09:25:05;4.40;99.90
19252;DHT22;9760;50.944;5.304;2023-03-11T09:27:31;4.40;99.90
19252;DHT22;9760;50.944;5.304;2023-03-11T09:29:57;4.50;99.90
19252;DHT22;9760;50.944;5.304;2023-03-11T09:32:22;4.50;99.90
19252;DHT22;9760;50.944;5.304;2023-03-11T09:34:48;4.60;99.90
19252;DHT22;9760;50.944;5.304;2023-03-11T09:37:14;4.80;99.90
19252;DHT22;9760;50.944;5.304;2023-03-11T09:39:39;5.00;99.90
19252;DHT22;9760;50.944;5.304;2023-03-11T09:42:16;5.10;99.90
19252;DHT22;9760;50.944;5.304;2023-03-11T09:45:24;5.30;99.90
19252;DHT22;9760;50.944;5.304;2023-03-11T09:50:28;5.60;99.90
19252;DHT22;9760;50.944;5.304;2023-03-11T09:55:36;5.30;99.90
19252;DHT22;9760;50.944;5.304;2023-03-11T09:59:01;5.20;99.90
19252;DHT22;9760;50.944;5.304;2023-03-11T10:01:02;5.30;99.90
19252;DHT22;9760;50.944;5.304;2023-03-11T10:03:33;5.30;99.90
19252;DHT22;9760;50.944;5.304;2023-03-11T10:09:14;5.70;99.90
19252;DHT22;9760;50.944;5.304;2023-03-11T10:14:47;5.90;99.90
19252;DHT22;9760;50.944;5.304;2023-03-11T10:17:53;5.90;99.90
19252;DHT22;9760;50.944;5.304;2023-03-11T10:23:18;6.50;99.90
19252;DHT22;9760;50.944;5.304;2023-03-11T10:31:26;6.90;99.90
19252;DHT22;9760;50.944;5.304;2023-03-11T10:33:55;7.10;99.90
19252;DHT22;9760;50.944;5.304;2023-03-11T10:36:28;6.90;99.90
19252;DHT22;9760;50.944;5.304;2023-03-11T10:38:56;6.60;99.90
19252;DHT22;9760;50.944;5.304;2023-03-11T10:44:12;6.20;99.90
19252;DHT22;9760;50.944;5.304;2023-03-11T10:46:39;6.10;99.90
19252;DHT22;9760;50.944;5.304;2023-03-11T10:49:14;6.20;99.90
19252;DHT22;9760;50.944;5.304;2023-03-11T10:51:41;6.50;99.90
19252;DHT22;9760;50.944;5.304;2023-03-11T10:54:29;6.70;99.90
19252;DHT22;9760;50.944;5.304;2023-03-11T10:57:03;6.70;99.90
19252;DHT22;9760;50.944;5.304;2023-03-11T10:59:33;6.40;99.90
19252;DHT22;9760;50.944;5.304;2023-03-11T11:02:01;6.20;99.90
19252;DHT22;9760;50.944;5.304;2023-03-11T11:04:37;6.70;99.90
19252;DHT22;9760;50.944;5.304;2023-03-11T11:07:35;7.40;99.90
19252;DHT22;9760;50.944;5.304;2023-03-11T11:15:42;9.00;99.90
19252;DHT22;9760;50.944;5.304;2023-03-11T11:26:05;7.80;99.90
19252;DHT22;9760;50.944;5.304;2023-03-11T11:28:33;7.40;99.90
19252;DHT22;9760;50.944;5.304;2023-03-11T11:31:00;7.40;99.90
19252;DHT22;9760;50.944;5.304;2023-03-11T11:33:50;7.50;99.90
19252;DHT22;9760;50.944;5.304;2023-03-11T11:36:17;7.60;99.90
19252;DHT22;9760;50.944;5.304;2023-03-11T11:38:43;7.30;99.90
19252;DHT22;9760;50.944;5.304;2023-03-11T11:41:14;7.30;99.90
19252;DHT22;9760;50.944;5.304;2023-03-11T11:43:55;7.40;99.90
19252;DHT22;9760;50.944;5.304;2023-03-11T11:46:54;7.20;99.90
19252;DHT22;9760;50.944;5.304;2023-03-11T11:49:30;7.00;99.90
19252;DHT22;9760;50.944;5.304;2023-03-11T11:54:51;7.10;99.90
19252;DHT22;9760;50.944;5.304;2023-03-11T11:57:24;7.20;99.90
19252;DHT22;9760;50.944;5.304;2023-03-11T11:59:52;7.40;99.90
19252;DHT22;9760;50.944;5.304;2023-03-11T12:08:16;7.20;99.90
19252;DHT22;9760;50.944;5.304;2023-03-11T12:13:52;6.90;99.90
19252;DHT22;9760;50.944;5.304;2023-03-11T12:24:40;7.30;99.90
19252;DHT22;9760;50.944;5.304;2023-03-11T12:27:30;7.60;99.90
19252;DHT22;9760;50.944;5.304;2023-03-11T12:30:11;7.40;99.90
19252;DHT22;9760;50.944;5.304;2023-03-11T12:32:47;7.30;99.90
19252;DHT22;9760;50.944;5.304;2023-03-11T12:35:31;7.20;99.90
19252;DHT22;9760;50.944;5.304;2023-03-11T12:45:49;6.70;99.90
19252;DHT22;9760;50.944;5.304;2023-03-11T12:53:53;6.50;99.90
19252;DHT22;9760;50.944;5.304;2023-03-11T12:56:42;6.60;99.90
19252;DHT22;9760;50.944;5.304;2023-03-11T13:02:17;6.90;99.90
19252;DHT22;9760;50.944;5.304;2023-03-11T13:10:35;7.70;99.90
19252;DHT22;9760;50.944;5.304;2023-03-11T13:15:54;7.50;99.90
19252;DHT22;9760;50.944;5.304;2023-03-11T13:18:31;7.20;99.90
19252;DHT22;9760;50.944;5.304;2023-03-11T13:21:01;6.90;99.90
19252;DHT22;9760;50.944;5.304;2023-03-11T13:23:37;6.90;99.90
19252;DHT22;9760;50.944;5.304;2023-03-11T13:26:29;7.00;99.90
19252;DHT22;9760;50.944;5.304;2023-03-11T13:40:38;7.10;99.90
19252;DHT22;9760;50.944;5.304;2023-03-11T13:43:20;6.90;99.90
19252;DHT22;9760;50.944;5.304;2023-03-11T13:45:57;6.70;99.90
19252;DHT22;9760;50.944;5.304;2023-03-11T13:48:34;6.50;99.90
19252;DHT22;9760;50.944;5.304;2023-03-11T13:53:50;6.50;99.90
19252;DHT22;9760;50.944;5.304;2023-03-11T13:56:31;6.70;99.90
19252;DHT22;9760;50.944;5.304;2023-03-11T13:59:24;6.70;99.90
19252;DHT22;9760;50.944;5.304;2023-03-11T14:02:00;6.60;99.90
19252;DHT22;9760;50.944;5.304;2023-03-11T14:04:29;6.50;99.90
19252;DHT22;9760;50.944;5.304;2023-03-11T14:06:55;6.40;99.90
19252;DHT22;9760;50.944;5.304;2023-03-11T14:09:23;6.50;99.90
19252;DHT22;9760;50.944;5.304;2023-03-11T14:11:52;6.50;99.90
19252;DHT22;9760;50.944;5.304;2023-03-11T14:17:31;6.80;99.90
19252;DHT22;9760;50.944;5.304;2023-03-11T14:20:14;6.80;99.90
19252;DHT22;9760;50.944;5.304;2023-03-11T14:22:44;6.80;99.90
19252;DHT22;9760;50.944;5.304;2023-03-11T14:25:19;6.90;99.90
19252;DHT22;9760;50.944;5.304;2023-03-11T14:27:59;7.10;99.90
19252;DHT22;9760;50.944;5.304;2023-03-11T14:30:31;7.40;99.90
19252;DHT22;9760;50.944;5.304;2023-03-11T14:33:20;7.30;99.90
19252;DHT22;9760;50.944;5.304;2023-03-11T14:35:57;7.20;99.90
19252;DHT22;9760;50.944;5.304;2023-03-11T14:38:26;7.20;99.90
19252;DHT22;9760;50.944;5.304;2023-03-11T14:40:58;7.10;99.90
19252;DHT22;9760;50.944;5.304;2023-03-11T14:43:24;7.20;99.90
19252;DHT22;9760;50.944;5.304;2023-03-11T14:45:52;7.30;99.90
19252;DHT22;9760;50.944;5.304;2023-03-11T14:48:37;7.20;99.90
19252;DHT22;9760;50.944;5.304;2023-03-11T14:51:10;7.00;99.90
19252;DHT22;9760;50.944;5.304;2023-03-11T14:53:46;6.90;99.90
19252;DHT22;9760;50.944;5.304;2023-03-11T14:56:18;7.10;99.90
19252;DHT22;9760;50.944;5.304;2023-03-11T14:59:14;7.20;99.90
19252;DHT22;9760;50.944;5.304;2023-03-11T15:01:43;7.20;99.90
19252;DHT22;9760;50.944;5.304;2023-03-11T15:04:32;7.00;99.90
19252;DHT22;9760;50.944;5.304;2023-03-11T15:06:59;6.80;99.90
19252;DHT22;9760;50.944;5.304;2023-03-11T15:09:26;6.60;99.90
19252;DHT22;9760;50.944;5.304;2023-03-11T15:11:57;6.70;99.90
19252;DHT22;9760;50.944;5.304;2023-03-11T15:14:26;6.80;99.90
19252;DHT22;9760;50.944;5.304;2023-03-11T15:16:53;6.90;99.90
19252;DHT22;9760;50.944;5.304;2023-03-11T15:19:30;7.00;99.90
19252;DHT22;9760;50.944;5.304;2023-03-11T15:21:58;7.10;99.90
19252;DHT22;9760;50.944;5.304;2023-03-11T15:24:30;7.10;99.90
19252;DHT22;9760;50.944;5.304;2023-03-11T15:26:57;7.20;99.90
19252;DHT22;9760;50.944;5.304;2023-03-11T15:29:25;7.10;99.90
19252;DHT22;9760;50.944;5.304;2023-03-11T15:31:51;7.20;99.90
19252;DHT22;9760;50.944;5.304;2023-03-11T15:37:24;7.40;99.90
19252;DHT22;9760;50.944;5.304;2023-03-11T15:39:49;7.50;99.90
19252;DHT22;9760;50.944;5.304;2023-03-11T15:42:19;7.60;99.90
19252;DHT22;9760;50.944;5.304;2023-03-11T15:44:59;7.70;99.90
19252;DHT22;9760;50.944;5.304;2023-03-11T15:47:26;7.70;99.90
19252;DHT22;9760;50.944;5.304;2023-03-11T15:49:52;7.40;99.90
19252;DHT22;9760;50.944;5.304;2023-03-11T15:52:18;7.40;99.90
19252;DHT22;9760;50.944;5.304;2023-03-11T15:54:44;7.50;99.90
19252;DHT22;9760;50.944;5.304;2023-03-11T15:57:24;7.40;99.90
19252;DHT22;9760;50.944;5.304;2023-03-11T15:59:52;7.40;99.90
19252;DHT22;9760;50.944;5.304;2023-03-11T16:02:23;7.40;99.90
19252;DHT22;9760;50.944;5.304;2023-03-11T16:04:50;7.40;99.90
19252;DHT22;9760;50.944;5.304;2023-03-11T16:07:16;7.40;99.90
19252;DHT22;9760;50.944;5.304;2023-03-11T16:09:41;7.40;99.90
19252;DHT22;9760;50.944;5.304;2023-03-11T16:12:15;7.40;99.90
19252;DHT22;9760;50.944;5.304;2023-03-11T16:14:42;7.40;99.90
19252;DHT22;9760;50.944;5.304;2023-03-11T16:17:08;7.40;99.90
19252;DHT22;9760;50.944;5.304;2023-03-11T16:19:34;7.30;99.90
19252;DHT22;9760;50.944;5.304;2023-03-11T16:22:01;7.30;99.90
19252;DHT22;9760;50.944;5.304;2023-03-11T16:24:27;7.30;99.90
19252;DHT22;9760;50.944;5.304;2023-03-11T16:26:52;7.30;99.90
19252;DHT22;9760;50.944;5.304;2023-03-11T16:29:19;7.30;99.90
19252;DHT22;9760;50.944;5.304;2023-03-11T16:31:47;7.30;99.90
19252;DHT22;9760;50.944;5.304;2023-03-11T16:34:13;7.30;99.90
19252;DHT22;9760;50.944;5.304;2023-03-11T16:36:39;7.20;99.90
19252;DHT22;9760;50.944;5.304;2023-03-11T16:39:04;7.10;99.90
19252;DHT22;9760;50.944;5.304;2023-03-11T16:41:40;7.20;99.90
19252;DHT22;9760;50.944;5.304;2023-03-11T16:44:06;7.00;99.90
19252;DHT22;9760;50.944;5.304;2023-03-11T16:46:32;6.80;99.90
19252;DHT22;9760;50.944;5.304;2023-03-11T16:48:57;6.80;99.90
19252;DHT22;9760;50.944;5.304;2023-03-11T16:51:23;6.80;99.90
19252;DHT22;9760;50.944;5.304;2023-03-11T16:53:49;6.80;99.90
19252;DHT22;9760;50.944;5.304;2023-03-11T16:56:14;6.80;99.90
19252;DHT22;9760;50.944;5.304;2023-03-11T16:58:40;6.70;99.90
19252;DHT22;9760;50.944;5.304;2023-03-11T17:01:05;6.50;99.90
19252;DHT22;9760;50.944;5.304;2023-03-11T17:03:31;6.50;99.90
19252;DHT22;9760;50.944;5.304;2023-03-11T17:06:01;6.40;99.90
19252;DHT22;9760;50.944;5.304;2023-03-11T17:08:26;6.30;99.90
19252;DHT22;9760;50.944;5.304;2023-03-11T17:10:52;6.20;99.90
19252;DHT22;9760;50.944;5.304;2023-03-11T17:13:17;6.10;99.90
19252;DHT22;9760;50.944;5.304;2023-03-11T17:15:43;6.10;99.90
19252;DHT22;9760;50.944;5.304;2023-03-11T17:18:10;6.10;99.90
19252;DHT22;9760;50.944;5.304;2023-03-11T17:20:38;6.00;99.90
19252;DHT22;9760;50.944;5.304;2023-03-11T17:23:04;6.00;99.90
19252;DHT22;9760;50.944;5.304;2023-03-11T17:25:30;6.00;99.90
19252;DHT22;9760;50.944;5.304;2023-03-11T17:27:56;5.90;99.90
19252;DHT22;9760;50.944;5.304;2023-03-11T17:30:22;5.90;99.90
19252;DHT22;9760;50.944;5.304;2023-03-11T17:32:47;5.90;99.90
19252;DHT22;9760;50.944;5.304;2023-03-11T17:35:13;5.90;99.90
19252;DHT22;9760;50.944;5.304;2023-03-11T17:37:38;5.90;99.90
19252;DHT22;9760;50.944;5.304;2023-03-11T17:40:05;5.90;99.90
19252;DHT22;9760;50.944;5.304;2023-03-11T17:42:31;5.90;99.90
19252;DHT22;9760;50.944;5.304;2023-03-11T17:44:57;5.90;99.90
19252;DHT22;9760;50.944;5.304;2023-03-11T17:47:22;5.80;99.90
19252;DHT22;9760;50.944;5.304;2023-03-11T17:49:50;5.80;99.90
19252;DHT22;9760;50.944;5.304;2023-03-11T17:52:16;5.80;99.90
19252;DHT22;9760;50.944;5.304;2023-03-11T17:54:42;5.80;99.90
19252;DHT22;9760;50.944;5.304;2023-03-11T17:57:08;5.80;99.90
19252;DHT22;9760;50.944;5.304;2023-03-11T17:59:33;5.70;99.90
19252;DHT22;9760;50.944;5.304;2023-03-11T18:01:59;5.70;99.90